TimeMST,TemperatureF,Dew PointF,Humidity,Sea Level PressureIn,VisibilityMPH,Wind Direction,Wind SpeedMPH,Gust SpeedMPH,PrecipitationIn,Events,Conditions,WindDirDegrees,DateUTC
12:53 AM,14.0,10.0,84,30.14,10.0,Calm,Calm,-,N/A,,Overcast,0,2012-12-28 07:53:00
1:53 AM,10.9,9.0,92,30.16,10.0,Calm,Calm,-,N/A,,Overcast,0,2012-12-28 08:53:00
2:53 AM,12.9,10.9,92,30.19,10.0,Calm,Calm,-,N/A,,Overcast,0,2012-12-28 09:53:00
3:53 AM,14.0,10.4,86,30.04,10.0,Calm,Calm,-,N/A,,Overcast,0,2012-12-28 10:53:00
4:53 AM,10.0,8.1,92,30.21,10.0,Calm,Calm,-,N/A,,Overcast,0,2012-12-28 11:53:00
5:53 AM,10.9,9.0,92,30.24,10.0,Variable,4.6,-,N/A,,Clear,0,2012-12-28 12:53:00
6:53 AM,8.1,7.0,95,30.28,10.0,West,4.6,-,N/A,,Scattered Clouds,270,2012-12-28 13:53:00
7:20 AM,6.8,5.0,92,30.09,3.0,Calm,Calm,-,N/A,,Scattered Clouds,0,2012-12-28 14:20:00
7:38 AM,5.0,1.4,85,30.10,1.2,Calm,Calm,-,N/A,,Scattered Clouds,0,2012-12-28 14:38:00
7:40 AM,5.0,3.2,92,30.10,0.8,Calm,Calm,-,N/A,,Mist,0,2012-12-28 14:40:00
7:53 AM,5.0,3.0,92,30.30,0.2,Calm,Calm,-,N/A,Fog,Light Freezing Fog,0,2012-12-28 14:53:00
8:43 AM,3.2,3.2,100,30.12,1.5,Calm,Calm,-,N/A,,Scattered Clouds,0,2012-12-28 15:43:00
8:45 AM,5.0,5.0,100,30.12,4.0,Calm,Calm,-,N/A,,Scattered Clouds,0,2012-12-28 15:45:00
8:53 AM,8.6,6.8,92,30.12,10.0,Calm,Calm,-,N/A,,Scattered Clouds,0,2012-12-28 15:53:00
9:53 AM,10.0,8.1,92,30.34,10.0,Calm,Calm,-,N/A,,Clear,0,2012-12-28 16:53:00
10:53 AM,12.0,9.0,88,30.34,10.0,West,4.6,-,N/A,,Clear,260,2012-12-28 17:53:00
11:53 AM,15.1,12.0,88,30.33,10.0,NNW,9.2,-,N/A,,Clear,330,2012-12-28 18:53:00
12:53 PM,17.1,12.9,84,30.30,10.0,NNW,5.8,-,N/A,,Clear,330,2012-12-28 19:53:00
1:53 PM,19.0,12.9,77,30.30,10.0,NW,5.8,-,N/A,,Clear,310,2012-12-28 20:53:00
2:53 PM,16.0,12.0,84,30.32,10.0,NNW,5.8,-,N/A,,Clear,330,2012-12-28 21:53:00
3:53 PM,16.0,10.9,81,30.32,10.0,Calm,Calm,-,N/A,,Clear,0,2012-12-28 22:53:00
4:53 PM,12.9,9.0,84,30.35,10.0,Calm,Calm,-,N/A,,Clear,0,2012-12-28 23:53:00
5:53 PM,12.0,10.0,92,30.37,10.0,Calm,Calm,-,N/A,,Clear,0,2012-12-29 00:53:00
6:53 PM,3.9,1.0,88,30.43,10.0,Calm,Calm,-,N/A,,Clear,0,2012-12-29 01:53:00
7:53 PM,6.1,3.0,87,30.45,10.0,WSW,3.5,-,N/A,,Clear,240,2012-12-29 02:53:00
8:53 PM,3.9,1.0,88,30.46,10.0,Calm,Calm,-,N/A,,Clear,0,2012-12-29 03:53:00
9:53 PM,3.2,-0.4,85,30.24,10.0,Calm,Calm,-,N/A,,Clear,0,2012-12-29 04:53:00
10:53 PM,1.9,-2.0,83,30.49,10.0,Calm,Calm,-,N/A,,Clear,0,2012-12-29 05:53:00
11:53 PM,-2.0,-2.9,96,30.50,10.0,WSW,3.5,-,N/A,,Clear,250,2012-12-29 06:53:00